sensor_id;sensor_type;location;lat;lon;timestamp;pressure;altitude;pressure_sealevel;temperature;humidity
61324;BME280;47203;48.428;11.974;2023-04-07T00:00:01;96838.19;;;7.11;39.13
61324;BME280;47203;48.428;11.974;2023-04-07T00:02:12;96840.16;;;7.04;39.07
61324;BME280;47203;48.428;11.974;2023-04-07T00:04:17;96837.69;;;6.97;38.91
61324;BME280;47203;48.428;11.974;2023-04-07T00:06:22;96840.78;;;6.94;39.06
61324;BME280;47203;48.428;11.974;2023-04-07T00:08:31;96844.66;;;6.92;39.14
61324;BME280;47203;48.428;11.974;2023-04-07T00:10:36;96846.50;;;6.91;38.88
61324;BME280;47203;48.428;11.974;2023-04-07T00:12:41;96842.03;;;6.92;39.01
61324;BME280;47203;48.428;11.974;2023-04-07T00:14:46;96838.94;;;6.95;39.06
61324;BME280;47203;48.428;11.974;2023-04-07T00:16:50;96835.06;;;6.97;39.35
61324;BME280;47203;48.428;11.974;2023-04-07T00:18:55;96828.03;;;6.98;39.26
61324;BME280;47203;48.428;11.974;2023-04-07T00:21:00;96839.03;;;7.00;39.36
61324;BME280;47203;48.428;11.974;2023-04-07T00:23:05;96824.94;;;7.01;39.44
61324;BME280;47203;48.428;11.974;2023-04-07T00:25:12;96831.72;;;7.02;39.39
61324;BME280;47203;48.428;11.974;2023-04-07T00:27:17;96826.25;;;7.04;39.21
61324;BME280;47203;48.428;11.974;2023-04-07T00:29:24;96830.16;;;7.01;39.33
61324;BME280;47203;48.428;11.974;2023-04-07T00:31:29;96836.09;;;6.96;39.17
61324;BME280;47203;48.428;11.974;2023-04-07T00:33:34;96836.03;;;6.91;39.32
61324;BME280;47203;48.428;11.974;2023-04-07T00:35:38;96831.50;;;6.87;39.57
61324;BME280;47203;48.428;11.974;2023-04-07T00:37:43;96834.59;;;6.84;39.24
61324;BME280;47203;48.428;11.974;2023-04-07T00:39:49;96828.47;;;6.78;39.55
61324;BME280;47203;48.428;11.974;2023-04-07T00:41:56;96820.88;;;6.76;39.61
61324;BME280;47203;48.428;11.974;2023-04-07T00:44:02;96822.44;;;6.77;39.59
61324;BME280;47203;48.428;11.974;2023-04-07T00:46:07;96819.03;;;6.77;39.49
61324;BME280;47203;48.428;11.974;2023-04-07T00:48:11;96818.75;;;6.73;39.71
61324;BME280;47203;48.428;11.974;2023-04-07T00:50:17;96812.94;;;6.71;39.79
61324;BME280;47203;48.428;11.974;2023-04-07T00:52:23;96816.59;;;6.70;39.87
61324;BME280;47203;48.428;11.974;2023-04-07T00:54:31;96810.00;;;6.68;39.69
61324;BME280;47203;48.428;11.974;2023-04-07T00:56:36;96801.81;;;6.64;39.75
61324;BME280;47203;48.428;11.974;2023-04-07T00:58:46;96798.66;;;6.62;39.77
61324;BME280;47203;48.428;11.974;2023-04-07T01:01:02;96802.06;;;6.62;39.88
61324;BME280;47203;48.428;11.974;2023-04-07T01:03:11;96804.44;;;6.64;39.72
61324;BME280;47203;48.428;11.974;2023-04-07T01:05:22;96788.19;;;6.62;39.88
61324;BME280;47203;48.428;11.974;2023-04-07T01:07:39;96787.41;;;6.61;39.83
61324;BME280;47203;48.428;11.974;2023-04-07T01:09:54;96784.81;;;6.61;39.86
61324;BME280;47203;48.428;11.974;2023-04-07T01:12:09;96786.13;;;6.64;39.86
61324;BME280;47203;48.428;11.974;2023-04-07T01:14:19;96781.94;;;6.63;39.62
61324;BME280;47203;48.428;11.974;2023-04-07T01:16:38;96777.75;;;6.62;39.69
61324;BME280;47203;48.428;11.974;2023-04-07T01:18:47;96773.53;;;6.61;39.96
61324;BME280;47203;48.428;11.974;2023-04-07T01:21:01;96777.41;;;6.58;39.82
61324;BME280;47203;48.428;11.974;2023-04-07T01:23:07;96774.25;;;6.56;39.64
61324;BME280;47203;48.428;11.974;2023-04-07T01:25:25;96772.09;;;6.53;39.73
61324;BME280;47203;48.428;11.974;2023-04-07T01:27:35;96771.00;;;6.49;39.81
61324;BME280;47203;48.428;11.974;2023-04-07T01:29:45;96763.16;;;6.49;39.96
61324;BME280;47203;48.428;11.974;2023-04-07T01:31:53;96762.38;;;6.49;39.73
61324;BME280;47203;48.428;11.974;2023-04-07T01:34:00;96768.84;;;6.46;39.86
61324;BME280;47203;48.428;11.974;2023-04-07T01:36:08;96767.97;;;6.40;39.89
61324;BME280;47203;48.428;11.974;2023-04-07T01:38:14;96771.53;;;6.34;39.83
61324;BME280;47203;48.428;11.974;2023-04-07T01:40:20;96770.66;;;6.28;40.12
61324;BME280;47203;48.428;11.974;2023-04-07T01:42:26;96778.16;;;6.25;40.14
61324;BME280;47203;48.428;11.974;2023-04-07T01:44:31;96776.81;;;6.22;40.29
61324;BME280;47203;48.428;11.974;2023-04-07T01:46:39;96775.47;;;6.20;40.10
61324;BME280;47203;48.428;11.974;2023-04-07T01:48:45;96773.06;;;6.18;40.35
61324;BME280;47203;48.428;11.974;2023-04-07T01:50:50;96776.72;;;6.17;40.28
61324;BME280;47203;48.428;11.974;2023-04-07T01:52:56;96773.84;;;6.19;40.26
61324;BME280;47203;48.428;11.974;2023-04-07T01:55:01;96782.03;;;6.22;40.47
61324;BME280;47203;48.428;11.974;2023-04-07T01:57:10;96784.41;;;6.24;40.39
61324;BME280;47203;48.428;11.974;2023-04-07T01:59:16;96784.06;;;6.20;40.59
61324;BME280;47203;48.428;11.974;2023-04-07T02:01:21;96769.69;;;6.18;40.40
61324;BME280;47203;48.428;11.974;2023-04-07T02:03:32;96775.94;;;6.17;40.51
61324;BME280;47203;48.428;11.974;2023-04-07T02:05:39;96771.72;;;6.16;40.75
61324;BME280;47203;48.428;11.974;2023-04-07T02:07:50;96766.19;;;6.12;40.75
61324;BME280;47203;48.428;11.974;2023-04-07T02:09:57;96768.78;;;6.12;40.60
61324;BME280;47203;48.428;11.974;2023-04-07T02:12:04;96768.78;;;6.12;40.76
61324;BME280;47203;48.428;11.974;2023-04-07T02:14:15;96767.75;;;6.13;40.83
61324;BME280;47203;48.428;11.974;2023-04-07T02:16:36;96765.38;;;6.11;40.87
61324;BME280;47203;48.428;11.974;2023-04-07T02:18:45;96762.69;;;6.06;40.81
61324;BME280;47203;48.428;11.974;2023-04-07T02:20:51;96760.78;;;6.02;40.93
61324;BME280;47203;48.428;11.974;2023-04-07T02:22:53;96764.88;;;5.98;40.85
61324;BME280;47203;48.428;11.974;2023-04-07T02:24:58;96762.25;;;5.98;40.87
61324;BME280;47203;48.428;11.974;2023-04-07T02:27:03;96748.59;;;5.95;41.14
61324;BME280;47203;48.428;11.974;2023-04-07T02:29:08;96761.09;;;5.93;40.94
61324;BME280;47203;48.428;11.974;2023-04-07T02:31:13;96758.97;;;5.90;40.89
61324;BME280;47203;48.428;11.974;2023-04-07T02:33:18;96765.91;;;5.85;40.95
61324;BME280;47203;48.428;11.974;2023-04-07T02:35:26;96764.78;;;5.81;41.23
61324;BME280;47203;48.428;11.974;2023-04-07T02:37:31;96760.25;;;5.76;41.42
61324;BME280;47203;48.428;11.974;2023-04-07T02:39:36;96756.75;;;5.70;41.10
61324;BME280;47203;48.428;11.974;2023-04-07T02:41:41;96756.97;;;5.69;41.17
61324;BME280;47203;48.428;11.974;2023-04-07T02:43:46;96756.19;;;5.68;41.29
61324;BME280;47203;48.428;11.974;2023-04-07T02:45:51;96754.59;;;5.67;41.41
61324;BME280;47203;48.428;11.974;2023-04-07T02:47:57;96765.28;;;5.66;41.25
61324;BME280;47203;48.428;11.974;2023-04-07T02:50:02;96759.50;;;5.64;41.23
61324;BME280;47203;48.428;11.974;2023-04-07T02:52:12;96759.16;;;5.60;41.38
61324;BME280;47203;48.428;11.974;2023-04-07T02:54:17;96753.94;;;5.60;41.31
61324;BME280;47203;48.428;11.974;2023-04-07T02:56:21;96757.09;;;5.62;41.47
61324;BME280;47203;48.428;11.974;2023-04-07T02:58:26;96751.44;;;5.65;41.48
61324;BME280;47203;48.428;11.974;2023-04-07T03:00:32;96754.38;;;5.69;41.27
61324;BME280;47203;48.428;11.974;2023-04-07T03:02:44;96758.09;;;5.73;41.37
61324;BME280;47203;48.428;11.974;2023-04-07T03:04:51;96758.41;;;5.76;41.42
61324;BME280;47203;48.428;11.974;2023-04-07T03:07:01;96750.94;;;5.80;41.24
61324;BME280;47203;48.428;11.974;2023-04-07T03:09:09;96752.59;;;5.86;41.44
61324;BME280;47203;48.428;11.974;2023-04-07T03:11:14;96749.75;;;5.88;41.34
61324;BME280;47203;48.428;11.974;2023-04-07T03:13:20;96752.72;;;5.91;41.55
61324;BME280;47203;48.428;11.974;2023-04-07T03:15:25;96749.41;;;5.96;41.37
61324;BME280;47203;48.428;11.974;2023-04-07T03:17:30;96750.56;;;6.00;41.25
61324;BME280;47203;48.428;11.974;2023-04-07T03:19:35;96751.41;;;6.06;41.32
61324;BME280;47203;48.428;11.974;2023-04-07T03:21:40;96752.31;;;6.11;41.20
61324;BME280;47203;48.428;11.974;2023-04-07T03:23:45;96739.56;;;6.15;41.16
61324;BME280;47203;48.428;11.974;2023-04-07T03:25:52;96735.72;;;6.18;41.16
61324;BME280;47203;48.428;11.974;2023-04-07T03:28:02;96739.41;;;6.22;41.28
61324;BME280;47203;48.428;11.974;2023-04-07T03:30:11;96738.72;;;6.26;41.41
61324;BME280;47203;48.428;11.974;2023-04-07T03:32:18;96741.66;;;6.30;41.29
61324;BME280;47203;48.428;11.974;2023-04-07T03:34:23;96740.16;;;6.34;41.15
61324;BME280;47203;48.428;11.974;2023-04-07T03:36:31;96742.28;;;6.37;41.45
61324;BME280;47203;48.428;11.974;2023-04-07T03:38:38;96738.19;;;6.41;41.39
61324;BME280;47203;48.428;11.974;2023-04-07T03:40:43;96732.72;;;6.43;41.42
61324;BME280;47203;48.428;11.974;2023-04-07T03:42:50;96739.53;;;6.44;41.30
61324;BME280;47203;48.428;11.974;2023-04-07T03:44:56;96740.88;;;6.46;41.46
61324;BME280;47203;48.428;11.974;2023-04-07T03:47:01;96740.63;;;6.48;41.38
61324;BME280;47203;48.428;11.974;2023-04-07T03:49:08;96747.22;;;6.51;41.42
61324;BME280;47203;48.428;11.974;2023-04-07T03:51:13;96743.09;;;6.55;41.26
61324;BME280;47203;48.428;11.974;2023-04-07T03:53:20;96736.63;;;6.57;41.23
61324;BME280;47203;48.428;11.974;2023-04-07T03:55:26;96746.34;;;6.62;41.44
61324;BME280;47203;48.428;11.974;2023-04-07T03:57:38;96730.66;;;6.62;41.31
61324;BME280;47203;48.428;11.974;2023-04-07T03:59:46;96736.13;;;6.60;41.48
61324;BME280;47203;48.428;11.974;2023-04-07T04:01:52;96734.53;;;6.59;41.19
61324;BME280;47203;48.428;11.974;2023-04-07T04:03:58;96730.91;;;6.60;41.34
61324;BME280;47203;48.428;11.974;2023-04-07T04:06:05;96732.50;;;6.61;41.46
61324;BME280;47203;48.428;11.974;2023-04-07T04:08:10;96734.06;;;6.62;41.43
61324;BME280;47203;48.428;11.974;2023-04-07T04:10:16;96733.81;;;6.64;41.54
61324;BME280;47203;48.428;11.974;2023-04-07T04:12:24;96729.41;;;6.64;41.32
61324;BME280;47203;48.428;11.974;2023-04-07T04:14:38;96721.56;;;6.64;41.25
61324;BME280;47203;48.428;11.974;2023-04-07T04:16:47;96732.03;;;6.64;41.37
61324;BME280;47203;48.428;11.974;2023-04-07T04:19:00;96724.41;;;6.63;41.63
61324;BME280;47203;48.428;11.974;2023-04-07T04:21:05;96723.34;;;6.64;41.69
61324;BME280;47203;48.428;11.974;2023-04-07T04:23:20;96719.19;;;6.63;41.27
61324;BME280;47203;48.428;11.974;2023-04-07T04:25:27;96725.34;;;6.57;41.50
61324;BME280;47203;48.428;11.974;2023-04-07T04:27:34;96723.28;;;6.59;41.51
61324;BME280;47203;48.428;11.974;2023-04-07T04:29:46;96718.31;;;6.57;41.47
61324;BME280;47203;48.428;11.974;2023-04-07T04:31:57;96723.28;;;6.59;41.30
61324;BME280;47203;48.428;11.974;2023-04-07T04:34:03;96720.44;;;6.60;41.45
61324;BME280;47203;48.428;11.974;2023-04-07T04:36:09;96724.41;;;6.63;41.66
61324;BME280;47203;48.428;11.974;2023-04-07T04:38:15;96722.56;;;6.63;41.57
61324;BME280;47203;48.428;11.974;2023-04-07T04:40:27;96723.94;;;6.66;41.39
61324;BME280;47203;48.428;11.974;2023-04-07T04:42:33;96719.25;;;6.68;41.54
61324;BME280;47203;48.428;11.974;2023-04-07T04:44:38;96718.22;;;6.69;41.79
61324;BME280;47203;48.428;11.974;2023-04-07T04:46:43;96716.16;;;6.71;41.61
61324;BME280;47203;48.428;11.974;2023-04-07T04:48:51;96723.22;;;6.71;41.75
61324;BME280;47203;48.428;11.974;2023-04-07T04:50:58;96727.97;;;6.74;41.73
61324;BME280;47203;48.428;11.974;2023-04-07T04:53:04;96729.56;;;6.75;41.83
61324;BME280;47203;48.428;11.974;2023-04-07T04:55:10;96722.25;;;6.77;41.70
61324;BME280;47203;48.428;11.974;2023-04-07T04:57:17;96709.94;;;6.77;41.70
61324;BME280;47203;48.428;11.974;2023-04-07T04:59:22;96714.16;;;6.78;42.01
61324;BME280;47203;48.428;11.974;2023-04-07T05:01:34;96718.84;;;6.76;41.77
61324;BME280;47203;48.428;11.974;2023-04-07T05:03:43;96713.88;;;6.75;41.87
61324;BME280;47203;48.428;11.974;2023-04-07T05:05:57;96717.50;;;6.74;41.91
61324;BME280;47203;48.428;11.974;2023-04-07T05:08:02;96716.72;;;6.73;41.89
61324;BME280;47203;48.428;11.974;2023-04-07T05:10:10;96718.53;;;6.73;42.19
61324;BME280;47203;48.428;11.974;2023-04-07T05:12:21;96718.53;;;6.73;42.27
61324;BME280;47203;48.428;11.974;2023-04-07T05:14:31;96715.66;;;6.74;42.32
61324;BME280;47203;48.428;11.974;2023-04-07T05:16:40;96715.44;;;6.76;42.12
61324;BME280;47203;48.428;11.974;2023-04-07T05:18:51;96719.41;;;6.78;42.04
61324;BME280;47203;48.428;11.974;2023-04-07T05:21:00;96716.28;;;6.81;42.15
61324;BME280;47203;48.428;11.974;2023-04-07T05:23:08;96714.78;;;6.86;42.29
61324;BME280;47203;48.428;11.974;2023-04-07T05:25:13;96719.00;;;6.87;42.20
61324;BME280;47203;48.428;11.974;2023-04-07T05:27:20;96719.78;;;6.87;42.48
61324;BME280;47203;48.428;11.974;2023-04-07T05:29:29;96712.94;;;6.86;42.54
61324;BME280;47203;48.428;11.974;2023-04-07T05:31:35;96715.56;;;6.86;42.62
61324;BME280;47203;48.428;11.974;2023-04-07T05:33:47;96715.81;;;6.85;42.70
61324;BME280;47203;48.428;11.974;2023-04-07T05:35:55;96722.63;;;6.86;42.40
61324;BME280;47203;48.428;11.974;2023-04-07T05:38:03;96720.03;;;6.86;42.68
61324;BME280;47203;48.428;11.974;2023-04-07T05:40:10;96721.91;;;6.90;42.64
61324;BME280;47203;48.428;11.974;2023-04-07T05:42:15;96718.28;;;6.91;42.56
61324;BME280;47203;48.428;11.974;2023-04-07T05:44:23;96720.94;;;6.96;42.79
61324;BME280;47203;48.428;11.974;2023-04-07T05:46:29;96716.56;;;7.02;42.81
61324;BME280;47203;48.428;11.974;2023-04-07T05:48:34;96718.72;;;7.05;42.58
61324;BME280;47203;48.428;11.974;2023-04-07T05:50:39;96723.00;;;7.11;42.67
61324;BME280;47203;48.428;11.974;2023-04-07T05:52:47;96720.44;;;7.16;42.69
61324;BME280;47203;48.428;11.974;2023-04-07T05:55:00;96727.56;;;7.21;42.83
61324;BME280;47203;48.428;11.974;2023-04-07T05:57:06;96720.56;;;7.27;42.51
61324;BME280;47203;48.428;11.974;2023-04-07T05:59:16;96724.06;;;7.32;42.67
61324;BME280;47203;48.428;11.974;2023-04-07T06:01:22;96721.75;;;7.36;42.73
61324;BME280;47203;48.428;11.974;2023-04-07T06:03:28;96714.75;;;7.42;42.83
61324;BME280;47203;48.428;11.974;2023-04-07T06:05:45;96712.72;;;7.49;42.79
61324;BME280;47203;48.428;11.974;2023-04-07T06:07:53;96708.66;;;7.58;42.74
61324;BME280;47203;48.428;11.974;2023-04-07T06:10:04;96712.41;;;7.67;43.06
61324;BME280;47203;48.428;11.974;2023-04-07T06:12:09;96712.00;;;7.76;43.06
61324;BME280;47203;48.428;11.974;2023-04-07T06:14:16;96712.34;;;7.84;42.90
61324;BME280;47203;48.428;11.974;2023-04-07T06:16:21;96711.34;;;7.91;43.04
61324;BME280;47203;48.428;11.974;2023-04-07T06:18:26;96714.56;;;7.98;43.23
61324;BME280;47203;48.428;11.974;2023-04-07T06:20:31;96699.44;;;8.05;43.27
61324;BME280;47203;48.428;11.974;2023-04-07T06:22:36;96710.53;;;8.12;43.36
61324;BME280;47203;48.428;11.974;2023-04-07T06:24:41;96711.13;;;8.19;43.30
61324;BME280;47203;48.428;11.974;2023-04-07T06:26:50;96704.88;;;8.26;43.55
61324;BME280;47203;48.428;11.974;2023-04-07T06:28:57;96708.84;;;8.33;43.55
61324;BME280;47203;48.428;11.974;2023-04-07T06:31:02;96714.44;;;8.42;43.29
61324;BME280;47203;48.428;11.974;2023-04-07T06:33:09;96711.66;;;8.49;43.29
61324;BME280;47203;48.428;11.974;2023-04-07T06:35:14;96714.03;;;8.55;43.23
61324;BME280;47203;48.428;11.974;2023-04-07T06:37:19;96707.81;;;8.62;43.33
61324;BME280;47203;48.428;11.974;2023-04-07T06:39:26;96708.09;;;8.65;43.61
61324;BME280;47203;48.428;11.974;2023-04-07T06:41:31;96709.44;;;8.68;43.53
61324;BME280;47203;48.428;11.974;2023-04-07T06:43:39;96709.97;;;8.70;43.73
61324;BME280;47203;48.428;11.974;2023-04-07T06:45:44;96705.25;;;8.72;43.57
61324;BME280;47203;48.428;11.974;2023-04-07T06:47:49;96703.41;;;8.72;44.04
61324;BME280;47203;48.428;11.974;2023-04-07T06:49:54;96712.06;;;8.73;43.77
61324;BME280;47203;48.428;11.974;2023-04-07T06:51:59;96703.72;;;8.76;43.98
61324;BME280;47203;48.428;11.974;2023-04-07T06:54:04;96705.59;;;8.81;44.00
61324;BME280;47203;48.428;11.974;2023-04-07T06:56:13;96692.22;;;8.82;43.92
61324;BME280;47203;48.428;11.974;2023-04-07T06:58:18;96700.34;;;8.86;44.15
61324;BME280;47203;48.428;11.974;2023-04-07T07:00:26;96699.31;;;8.87;44.04
61324;BME280;47203;48.428;11.974;2023-04-07T07:02:31;96699.56;;;8.85;44.20
61324;BME280;47203;48.428;11.974;2023-04-07T07:04:36;96698.25;;;8.83;44.24
61324;BME280;47203;48.428;11.974;2023-04-07T07:06:41;96699.28;;;8.82;44.46
61324;BME280;47203;48.428;11.974;2023-04-07T07:08:46;96702.44;;;8.84;44.56
61324;BME280;47203;48.428;11.974;2023-04-07T07:10:51;96708.78;;;8.88;44.47
61324;BME280;47203;48.428;11.974;2023-04-07T07:12:57;96700.16;;;8.93;44.64
61324;BME280;47203;48.428;11.974;2023-04-07T07:15:02;96706.97;;;8.94;44.77
61324;BME280;47203;48.428;11.974;2023-04-07T07:17:09;96707.75;;;8.94;44.73
61324;BME280;47203;48.428;11.974;2023-04-07T07:19:14;96704.88;;;8.96;44.92
61324;BME280;47203;48.428;11.974;2023-04-07T07:21:19;96701.75;;;8.99;44.89
61324;BME280;47203;48.428;11.974;2023-04-07T07:23:24;96710.16;;;9.01;44.81
61324;BME280;47203;48.428;11.974;2023-04-07T07:25:29;96703.34;;;9.05;44.87
61324;BME280;47203;48.428;11.974;2023-04-07T07:27:34;96704.19;;;9.11;45.10
61324;BME280;47203;48.428;11.974;2023-04-07T07:29:39;96696.09;;;9.17;44.86
61324;BME280;47203;48.428;11.974;2023-04-07T07:31:44;96693.75;;;9.26;44.91
61324;BME280;47203;48.428;11.974;2023-04-07T07:33:52;96704.31;;;9.36;44.92
61324;BME280;47203;48.428;11.974;2023-04-07T07:35:57;96700.69;;;9.48;45.11
61324;BME280;47203;48.428;11.974;2023-04-07T07:38:02;96706.75;;;9.58;44.89
61324;BME280;47203;48.428;11.974;2023-04-07T07:40:07;96706.00;;;9.68;45.01
61324;BME280;47203;48.428;11.974;2023-04-07T07:42:12;96699.19;;;9.77;44.74
61324;BME280;47203;48.428;11.974;2023-04-07T07:44:17;96704.72;;;9.86;45.00
61324;BME280;47203;48.428;11.974;2023-04-07T07:46:23;96708.69;;;9.94;44.96
61324;BME280;47203;48.428;11.974;2023-04-07T07:48:28;96709.50;;;10.00;44.70
61324;BME280;47203;48.428;11.974;2023-04-07T07:50:36;96700.84;;;10.09;44.82
61324;BME280;47203;48.428;11.974;2023-04-07T07:52:40;96706.13;;;10.20;44.66
61324;BME280;47203;48.428;11.974;2023-04-07T07:54:45;96709.28;;;10.27;44.64
61324;BME280;47203;48.428;11.974;2023-04-07T07:56:50;96707.72;;;10.36;44.83
61324;BME280;47203;48.428;11.974;2023-04-07T07:58:55;96700.34;;;10.43;44.65
61324;BME280;47203;48.428;11.974;2023-04-07T08:01:00;96708.53;;;10.52;44.64
61324;BME280;47203;48.428;11.974;2023-04-07T08:03:05;96707.72;;;10.62;44.58
61324;BME280;47203;48.428;11.974;2023-04-07T08:05:10;96698.50;;;10.70;44.75
61324;BME280;47203;48.428;11.974;2023-04-07T08:07:18;96700.84;;;10.81;44.57
61324;BME280;47203;48.428;11.974;2023-04-07T08:09:23;96699.00;;;10.92;44.60
61324;BME280;47203;48.428;11.974;2023-04-07T08:11:28;96698.72;;;11.04;44.51
61324;BME280;47203;48.428;11.974;2023-04-07T08:13:33;96694.75;;;11.12;44.41
61324;BME280;47203;48.428;11.974;2023-04-07T08:15:38;96698.41;;;11.21;44.66
61324;BME280;47203;48.428;11.974;2023-04-07T08:17:43;96694.19;;;11.25;44.30
61324;BME280;47203;48.428;11.974;2023-04-07T08:19:48;96699.44;;;11.30;44.48
61324;BME280;47203;48.428;11.974;2023-04-07T08:21:53;96693.38;;;11.35;44.43
61324;BME280;47203;48.428;11.974;2023-04-07T08:24:00;96695.19;;;11.40;44.42
61324;BME280;47203;48.428;11.974;2023-04-07T08:26:05;96695.16;;;11.50;44.22
61324;BME280;47203;48.428;11.974;2023-04-07T08:28:10;96692.72;;;11.59;44.10
61324;BME280;47203;48.428;11.974;2023-04-07T08:30:15;96699.03;;;11.63;44.24
61324;BME280;47203;48.428;11.974;2023-04-07T08:32:21;96687.19;;;11.65;44.18
61324;BME280;47203;48.428;11.974;2023-04-07T08:34:27;96694.00;;;11.72;44.00
61324;BME280;47203;48.428;11.974;2023-04-07T08:36:32;96685.25;;;11.81;43.97
61324;BME280;47203;48.428;11.974;2023-04-07T08:38:36;96690.47;;;11.92;43.87
61324;BME280;47203;48.428;11.974;2023-04-07T08:40:44;96689.91;;;12.00;43.77
61324;BME280;47203;48.428;11.974;2023-04-07T08:42:50;96692.19;;;12.12;43.68
61324;BME280;47203;48.428;11.974;2023-04-07T08:44:56;96694.75;;;12.27;43.58
61324;BME280;47203;48.428;11.974;2023-04-07T08:47:03;96697.28;;;12.43;43.62
61324;BME280;47203;48.428;11.974;2023-04-07T08:49:12;96693.47;;;12.54;43.44
61324;BME280;47203;48.428;11.974;2023-04-07T08:51:26;96698.44;;;12.61;43.32
61324;BME280;47203;48.428;11.974;2023-04-07T08:53:35;96689.41;;;12.67;43.06
61324;BME280;47203;48.428;11.974;2023-04-07T08:55:44;96690.72;;;12.69;43.00
61324;BME280;47203;48.428;11.974;2023-04-07T08:57:50;96690.13;;;12.78;42.88
61324;BME280;47203;48.428;11.974;2023-04-07T08:59:56;96685.50;;;12.88;42.69
61324;BME280;47203;48.428;11.974;2023-04-07T09:02:05;96700.41;;;13.03;42.69
61324;BME280;47203;48.428;11.974;2023-04-07T09:04:10;96685.75;;;13.16;42.87
61324;BME280;47203;48.428;11.974;2023-04-07T09:06:16;96690.06;;;13.31;42.65
61324;BME280;47203;48.428;11.974;2023-04-07T09:08:21;96687.78;;;13.49;42.29
61324;BME280;47203;48.428;11.974;2023-04-07T09:10:26;96687.88;;;13.63;42.43
61324;BME280;47203;48.428;11.974;2023-04-07T09:12:34;96678.97;;;13.77;42.26
61324;BME280;47203;48.428;11.974;2023-04-07T09:14:39;96678.47;;;13.94;42.58
61324;BME280;47203;48.428;11.974;2023-04-07T09:16:44;96677.66;;;14.13;42.07
61324;BME280;47203;48.428;11.974;2023-04-07T09:18:51;96680.09;;;14.28;42.08
61324;BME280;47203;48.428;11.974;2023-04-07T09:20:57;96674.53;;;14.44;41.60
61324;BME280;47203;48.428;11.974;2023-04-07T09:23:03;96675.34;;;14.58;41.83
61324;BME280;47203;48.428;11.974;2023-04-07T09:25:13;96673.38;;;14.69;41.34
61324;BME280;47203;48.428;11.974;2023-04-07T09:27:19;96672.91;;;14.81;41.39
61324;BME280;47203;48.428;11.974;2023-04-07T09:29:26;96661.03;;;14.92;41.32
61324;BME280;47203;48.428;11.974;2023-04-07T09:31:44;96655.16;;;15.09;41.30
61324;BME280;47203;48.428;11.974;2023-04-07T09:33:49;96663.50;;;15.30;41.14
61324;BME280;47203;48.428;11.974;2023-04-07T09:35:54;96666.34;;;15.48;40.50
61324;BME280;47203;48.428;11.974;2023-04-07T09:38:03;96663.56;;;15.53;40.17
61324;BME280;47203;48.428;11.974;2023-04-07T09:40:09;96661.28;;;15.60;40.09
61324;BME280;47203;48.428;11.974;2023-04-07T09:42:14;96665.22;;;15.63;39.90
61324;BME280;47203;48.428;11.974;2023-04-07T09:44:19;96657.94;;;15.68;39.81
61324;BME280;47203;48.428;11.974;2023-04-07T09:46:30;96660.00;;;15.71;39.52
61324;BME280;47203;48.428;11.974;2023-04-07T09:48:36;96662.97;;;15.70;39.30
61324;BME280;47203;48.428;11.974;2023-04-07T09:50:42;96658.13;;;15.72;39.53
61324;BME280;47203;48.428;11.974;2023-04-07T09:52:51;96648.13;;;15.83;39.28
61324;BME280;47203;48.428;11.974;2023-04-07T09:54:56;96650.53;;;15.93;39.21
61324;BME280;47203;48.428;11.974;2023-04-07T09:57:03;96658.28;;;16.03;39.40
61324;BME280;47203;48.428;11.974;2023-04-07T09:59:09;96660.69;;;16.14;38.79
61324;BME280;47203;48.428;11.974;2023-04-07T10:01:15;96661.06;;;16.21;38.97
61324;BME280;47203;48.428;11.974;2023-04-07T10:03:23;96651.88;;;16.27;38.53
61324;BME280;47203;48.428;11.974;2023-04-07T10:05:28;96661.22;;;16.25;38.31
61324;BME280;47203;48.428;11.974;2023-04-07T10:07:34;96654.94;;;16.20;38.75
61324;BME280;47203;48.428;11.974;2023-04-07T10:09:39;96657.91;;;16.19;38.82
61324;BME280;47203;48.428;11.974;2023-04-07T10:11:44;96650.44;;;16.21;38.77
61324;BME280;47203;48.428;11.974;2023-04-07T10:13:49;96651.88;;;16.27;38.63
61324;BME280;47203;48.428;11.974;2023-04-07T10:15:54;96650.66;;;16.33;38.53
61324;BME280;47203;48.428;11.974;2023-04-07T10:18:00;96648.00;;;16.33;38.32
61324;BME280;47203;48.428;11.974;2023-04-07T10:20:12;96647.28;;;16.19;38.57
61324;BME280;47203;48.428;11.974;2023-04-07T10:22:18;96652.06;;;16.08;38.41
61324;BME280;47203;48.428;11.974;2023-04-07T10:24:36;96646.19;;;15.97;38.33
61324;BME280;47203;48.428;11.974;2023-04-07T10:26:49;96645.53;;;15.92;38.63
61324;BME280;47203;48.428;11.974;2023-04-07T10:28:58;96651.13;;;15.90;38.45
61324;BME280;47203;48.428;11.974;2023-04-07T10:31:04;96644.56;;;15.87;38.97
61324;BME280;47203;48.428;11.974;2023-04-07T10:33:09;96642.00;;;15.82;38.42
61324;BME280;47203;48.428;11.974;2023-04-07T10:35:17;96646.53;;;15.68;38.47
61324;BME280;47203;48.428;11.974;2023-04-07T10:37:24;96640.75;;;15.52;38.68
61324;BME280;47203;48.428;11.974;2023-04-07T10:39:28;96639.44;;;15.41;38.66
61324;BME280;47203;48.428;11.974;2023-04-07T10:41:37;96641.69;;;15.33;38.55
61324;BME280;47203;48.428;11.974;2023-04-07T10:43:42;96641.78;;;15.28;38.37
61324;BME280;47203;48.428;11.974;2023-04-07T10:45:54;96639.44;;;15.27;38.64
61324;BME280;47203;48.428;11.974;2023-04-07T10:48:11;96642.97;;;15.22;38.55
61324;BME280;47203;48.428;11.974;2023-04-07T10:50:20;96638.56;;;15.17;38.58
61324;BME280;47203;48.428;11.974;2023-04-07T10:52:25;96635.69;;;15.14;38.96
61324;BME280;47203;48.428;11.974;2023-04-07T10:54:30;96634.63;;;15.15;38.85
61324;BME280;47203;48.428;11.974;2023-04-07T10:59:14;96638.34;;;15.28;38.93
61324;BME280;47203;48.428;11.974;2023-04-07T11:01:20;96636.19;;;15.44;38.57
61324;BME280;47203;48.428;11.974;2023-04-07T11:03:26;96631.03;;;15.61;38.77
61324;BME280;47203;48.428;11.974;2023-04-07T11:05:34;96628.56;;;15.79;38.51
61324;BME280;47203;48.428;11.974;2023-04-07T11:07:51;96632.13;;;15.97;38.37
61324;BME280;47203;48.428;11.974;2023-04-07T11:10:08;96633.78;;;16.07;37.95
61324;BME280;47203;48.428;11.974;2023-04-07T11:12:21;96629.81;;;16.18;37.76